Time;durP1;ratioP1;P1;durP2;ratioP2;P2;SDS_P1;SDS_P2;PMS_P1;PMS_P2;Temp;Humidity;BMP_temperature;BMP_pressure;BME280_temperature;BME280_humidity;BME280_pressure;Samples;Min_cycle;Max_cycle;Signal;HPM_P1;HPM_P2
2023/05/13 09:29:30;;;;;;;15.40;4.47;;;;;;;;;;5040710;28;20417;-68
2023/05/13 09:34:09;;;;;;;7.03;3.17;;;;;;;;;;5039229;27;91590;-65
2023/05/13 13:12:15;;;;;;;13.48;8.25;;;;;;;;;;5051784;28;20794;-76
2023/05/13 13:14:40;;;;;;;15.38;9.13;;;;;;;;;;5026300;28;20074;-77
2023/05/13 13:17:06;;;;;;;12.35;7.93;;;;;;;;;;5000195;28;20074;-77
2023/05/13 13:19:31;;;;;;;10.43;7.05;;;;;;;;;;5016926;28;20037;-77
2023/05/13 13:21:56;;;;;;;14.55;9.55;;;;;;;;;;5017832;28;20025;-77
2023/05/13 13:24:22;;;;;;;11.77;7.65;;;;;;;;;;5014301;28;20205;-77
2023/05/13 13:26:48;;;;;;;9.80;5.75;;;;;;;;;;5017393;28;20542;-77
2023/05/13 13:29:14;;;;;;;12.15;7.85;;;;;;;;;;5018792;28;20018;-77
2023/05/13 13:31:39;;;;;;;12.18;8.10;;;;;;;;;;5017697;28;20022;-77
2023/05/13 13:34:05;;;;;;;13.60;8.80;;;;;;;;;;5005185;28;20136;-77
2023/05/13 13:36:33;;;;;;;15.15;8.80;;;;;;;;;;4998673;28;20428;-77
2023/05/13 13:38:58;;;;;;;11.48;8.27;;;;;;;;;;4998898;28;20044;-77
2023/05/13 13:54:54;;;;;;;13.10;8.82;;;;;;;;;;4965460;28;20147;-77
2023/05/13 13:57:45;;;;;;;16.42;9.10;;;;;;;;;;5018860;28;20037;-78
2023/05/13 14:01:22;;;;;;;;;;;;;;;;;;;;;
2023/05/13 14:04:26;;;;;;;;;;;;;;;;;;;;;
2023/05/13 14:07:12;;;;;;;13.50;9.00;;;;;;;;;;5012740;28;20038;-78
2023/05/13 14:09:37;;;;;;;12.32;8.68;;;;;;;;;;5014266;28;20404;-77
2023/05/13 14:12:03;;;;;;;15.90;8.52;;;;;;;;;;5013682;28;20036;-77
2023/05/13 14:14:29;;;;;;;14.88;8.50;;;;;;;;;;4997462;28;20037;-76
2023/05/13 14:16:54;;;;;;;10.85;7.47;;;;;;;;;;5001133;28;20040;-77
2023/05/13 14:19:19;;;;;;;11.60;7.93;;;;;;;;;;5016596;28;20026;-77
2023/05/13 14:21:45;;;;;;;13.73;7.85;;;;;;;;;;5011339;28;20027;-77
2023/05/13 14:24:10;;;;;;;10.98;6.93;;;;;;;;;;5001503;28;20534;-77
2023/05/13 14:26:36;;;;;;;10.95;7.03;;;;;;;;;;5002948;28;20022;-79
2023/05/13 14:29:01;;;;;;;10.13;7.55;;;;;;;;;;4975642;28;20033;-77
2023/05/13 14:31:27;;;;;;;9.73;6.72;;;;;;;;;;4983906;28;20030;-77
2023/05/13 14:33:52;;;;;;;8.77;6.63;;;;;;;;;;5002163;28;20026;-79
2023/05/13 14:36:19;;;;;;;9.20;6.40;;;;;;;;;;4986161;28;20129;-79
2023/05/13 14:38:44;;;;;;;9.13;6.30;;;;;;;;;;4978630;28;20026;-76
2023/05/13 14:41:11;;;;;;;12.93;9.02;;;;;;;;;;4994209;28;20509;-77
2023/05/13 14:43:36;;;;;;;8.02;6.20;;;;;;;;;;4983106;28;20037;-77
2023/05/13 14:46:02;;;;;;;9.38;7.03;;;;;;;;;;4996963;28;20037;-77
2023/05/13 14:48:27;;;;;;;7.88;6.90;;;;;;;;;;5000542;28;20037;-77
2023/05/13 14:50:53;;;;;;;8.52;6.13;;;;;;;;;;4979393;28;20030;-77
2023/05/13 14:53:18;;;;;;;10.80;8.73;;;;;;;;;;4997197;28;20105;-77
2023/05/13 14:55:43;;;;;;;10.63;7.43;;;;;;;;;;4995786;28;20030;-77
2023/05/13 14:58:08;;;;;;;16.33;7.57;;;;;;;;;;4986364;28;20045;-77
2023/05/13 15:00:36;;;;;;;12.25;7.75;;;;;;;;;;4981448;28;20026;-77
2023/05/13 15:03:01;;;;;;;7.82;5.95;;;;;;;;;;5002233;28;20038;-77
2023/05/13 15:05:27;;;;;;;12.63;6.80;;;;;;;;;;4986521;28;20413;-77
2023/05/13 15:07:52;;;;;;;8.68;6.47;;;;;;;;;;4981753;28;20389;-76
2023/05/13 15:10:17;;;;;;;9.93;7.10;;;;;;;;;;4981171;28;20389;-77
2023/05/13 15:12:43;;;;;;;12.98;6.63;;;;;;;;;;4998074;28;20504;-77
2023/05/13 15:15:09;;;;;;;9.55;6.68;;;;;;;;;;4980188;28;20535;-77
2023/05/13 15:17:34;;;;;;;9.18;6.28;;;;;;;;;;4996276;28;20408;-77
2023/05/13 15:19:59;;;;;;;10.63;7.32;;;;;;;;;;4981416;28;20034;-77
2023/05/13 15:22:24;;;;;;;10.15;6.53;;;;;;;;;;4995390;28;20038;-77
2023/05/13 15:24:50;;;;;;;8.70;6.38;;;;;;;;;;4995685;28;20057;-77
2023/05/13 15:27:16;;;;;;;7.32;5.40;;;;;;;;;;4997117;28;20037;-77
2023/05/13 15:29:41;;;;;;;9.23;5.47;;;;;;;;;;4978169;28;20030;-77
2023/05/13 15:32:06;;;;;;;10.57;6.95;;;;;;;;;;4988385;28;20441;-77
2023/05/13 15:34:32;;;;;;;7.97;6.40;;;;;;;;;;4996182;28;20042;-76
2023/05/13 15:36:57;;;;;;;7.55;6.40;;;;;;;;;;4997215;28;20036;-77
2023/05/13 15:39:22;;;;;;;7.75;5.72;;;;;;;;;;4987937;28;20043;-77
2023/05/13 15:41:48;;;;;;;6.90;5.90;;;;;;;;;;4997318;28;20076;-76
2023/05/13 15:44:13;;;;;;;7.20;4.78;;;;;;;;;;4997330;28;20045;-77
2023/05/13 15:46:39;;;;;;;7.63;5.22;;;;;;;;;;4979585;28;20025;-77
2023/05/13 15:49:05;;;;;;;9.48;5.50;;;;;;;;;;4979667;28;21645;-77
2023/05/13 15:51:53;;;;;;;7.55;5.50;;;;;;;;;;4980204;28;20030;-79
2023/05/13 15:54:46;;;;;;;6.32;5.38;;;;;;;;;;4982348;28;20587;-78
2023/05/13 16:01:26;;;;;;;7.03;5.75;;;;;;;;;;5002805;28;20095;-78
2023/05/13 16:08:31;;;;;;;;;;;;;;;;;;;;;
2023/05/13 16:25:16;;;;;;;5.28;4.40;;;;;;;;;;4896424;29;20486;-78
2023/05/13 16:49:50;;;;;;;;;;;;;;;;;;;;;
2023/05/13 17:47:58;;;;;;;3.00;2.80;;;;;;;;;;6137191;22;20008;-79
2023/05/13 17:51:01;;;;;;;3.20;3.00;;;;;;;;;;6166961;23;20024;-78
2023/05/13 17:54:16;;;;;;;3.15;2.88;;;;;;;;;;6220030;23;20004;-78
2023/05/13 17:57:58;;;;;;;;;;;;;;;;;;;;;
2023/05/13 18:17:12;;;;;;;3.13;2.83;;;;;;;;;;6207375;22;19969;-79
2023/05/13 18:20:02;;;;;;;3.85;3.25;;;;;;;;;;6192958;23;20005;-78
2023/05/13 18:22:40;;;;;;;;;;;;;;;;;;;;;
2023/05/13 18:25:16;;;;;;;3.03;2.83;;;;;;;;;;6164164;23;20079;-77
2023/05/13 18:27:41;;;;;;;3.35;2.90;;;;;;;;;;6199140;23;20091;-80
2023/05/13 18:30:07;;;;;;;3.70;3.20;;;;;;;;;;6200042;23;20046;-80
2023/05/13 18:37:06;;;;;;;3.57;3.27;;;;;;;;;;6113861;23;20036;-79
2023/05/13 18:40:01;;;;;;;;;;;;;;;;;;;;;
2023/05/13 18:53:15;;;;;;;;;;;;;;;;;;;;;
2023/05/13 19:16:39;;;;;;;4.63;4.22;;;;;;;;;;5978274;24;20518;-82
2023/05/13 19:19:45;;;;;;;5.22;4.72;;;;;;;;;;5979442;23;20016;-81
2023/05/13 19:26:17;;;;;;;7.65;6.57;;;;;;;;;;6092797;23;20022;-81
2023/05/13 19:29:23;;;;;;;10.07;5.85;;;;;;;;;;6094254;23;20020;-83
2023/05/13 19:32:25;;;;;;;7.85;6.07;;;;;;;;;;6092329;23;20013;-80
2023/05/13 19:35:26;;;;;;;5.88;5.20;;;;;;;;;;6118300;23;20012;-80
2023/05/13 19:42:05;;;;;;;7.65;5.85;;;;;;;;;;6027124;23;20028;-80
2023/05/13 19:44:45;;;;;;;7.97;6.97;;;;;;;;;;6038275;23;20015;-79
2023/05/13 19:47:16;;;;;;;11.50;7.32;;;;;;;;;;6041308;23;20408;-81
2023/05/13 19:49:53;;;;;;;7.63;6.78;;;;;;;;;;6106070;23;20001;-81
2023/05/13 19:53:05;;;;;;;11.15;8.95;;;;;;;;;;6132109;23;20013;-81
2023/05/13 19:55:37;;;;;;;8.50;6.72;;;;;;;;;;6015766;23;20456;-79
2023/05/13 19:58:06;;;;;;;14.43;9.65;;;;;;;;;;6037822;23;20737;-79
2023/05/13 20:01:10;;;;;;;8.07;7.28;;;;;;;;;;6028556;23;20011;-80
2023/05/13 20:15:02;;;;;;;13.23;7.55;;;;;;;;;;6095947;23;20027;-80
2023/05/13 20:17:31;;;;;;;11.63;6.82;;;;;;;;;;6165290;23;20035;-80
2023/05/13 20:20:12;;;;;;;9.20;7.28;;;;;;;;;;6135929;23;20023;-79
2023/05/13 20:23:12;;;;;;;7.95;6.63;;;;;;;;;;6166919;23;20000;-79
2023/05/13 20:26:14;;;;;;;7.93;7.07;;;;;;;;;;6179363;23;20341;-79
2023/05/13 20:29:32;;;;;;;;;;;;;;;;;;;;;
2023/05/13 20:35:37;;;;;;;7.93;6.75;;;;;;;;;;6054881;23;20467;-80
2023/05/13 20:38:12;;;;;;;8.10;7.30;;;;;;;;;;6121306;23;20012;-79
2023/05/13 20:40:50;;;;;;;9.15;7.45;;;;;;;;;;6154907;23;20063;-80
2023/05/13 20:44:20;;;;;;;11.45;8.65;;;;;;;;;;6154094;23;20405;-80
2023/05/13 20:47:26;;;;;;;13.90;8.40;;;;;;;;;;6117597;23;20010;-79
2023/05/13 20:49:58;;;;;;;9.43;8.43;;;;;;;;;;6157267;23;20046;-81
2023/05/13 20:52:29;;;;;;;11.23;9.18;;;;;;;;;;6138166;23;20106;-79
2023/05/13 20:54:55;;;;;;;13.30;9.95;;;;;;;;;;6134991;23;20043;-78
2023/05/13 20:57:40;;;;;;;12.10;8.73;;;;;;;;;;6183827;23;20013;-79
2023/05/13 21:04:07;;;;;;;12.55;9.80;;;;;;;;;;6078069;23;20318;-81
2023/05/13 21:07:03;;;;;;;10.05;9.05;;;;;;;;;;6123632;23;20034;-80
2023/05/13 21:10:07;;;;;;;10.88;9.20;;;;;;;;;;6066861;23;20007;-80
2023/05/13 21:13:17;;;;;;;10.43;8.43;;;;;;;;;;6125440;23;20016;-80
2023/05/13 21:15:42;;;;;;;12.95;9.80;;;;;;;;;;6208803;23;20017;-80
2023/05/13 21:18:54;;;;;;;12.27;9.82;;;;;;;;;;6162448;23;20008;-79
2023/05/13 21:21:55;;;;;;;14.90;9.55;;;;;;;;;;6123276;23;20055;-80
2023/05/13 21:24:51;;;;;;;11.80;9.95;;;;;;;;;;6135280;23;20006;-80
2023/05/13 21:30:14;;;;;;;11.82;10.07;;;;;;;;;;6082413;23;20369;-78
2023/05/13 21:32:43;;;;;;;11.52;9.38;;;;;;;;;;6115824;23;20009;-79
2023/05/13 21:35:46;;;;;;;;;;;;;;;;;;;;;
2023/05/13 21:38:00;;;;;;;13.40;10.40;;;;;;;;;;6137353;23;20543;-77
2023/05/13 21:40:29;;;;;;;12.30;10.10;;;;;;;;;;6134046;23;20012;-81
2023/05/13 21:42:54;;;;;;;12.80;10.35;;;;;;;;;;6138074;23;20001;-80
2023/05/13 21:45:19;;;;;;;10.48;8.38;;;;;;;;;;6110263;23;20444;-80
2023/05/13 21:47:45;;;;;;;10.65;8.30;;;;;;;;;;6135924;23;20492;-80
2023/05/13 21:50:11;;;;;;;11.55;8.98;;;;;;;;;;6135405;23;20009;-80
2023/05/13 21:52:36;;;;;;;12.90;10.02;;;;;;;;;;6135268;23;20333;-80
2023/05/13 21:55:01;;;;;;;15.20;9.27;;;;;;;;;;6134898;23;20088;-80
2023/05/13 21:57:27;;;;;;;13.90;9.95;;;;;;;;;;6135112;23;20009;-80
2023/05/13 21:59:52;;;;;;;14.10;10.93;;;;;;;;;;6110107;23;20001;-80
2023/05/13 22:02:18;;;;;;;13.15;9.90;;;;;;;;;;6110579;23;20768;-80
2023/05/13 22:04:43;;;;;;;14.20;10.32;;;;;;;;;;6158489;23;20076;-80
2023/05/13 22:07:08;;;;;;;12.27;9.75;;;;;;;;;;6110742;23;20016;-81
2023/05/13 22:09:34;;;;;;;11.95;8.85;;;;;;;;;;6135533;23;20461;-80
2023/05/13 22:12:00;;;;;;;11.75;9.50;;;;;;;;;;6135109;23;20024;-81
2023/05/13 22:14:25;;;;;;;14.38;10.88;;;;;;;;;;6110783;23;20417;-81
2023/05/13 22:16:51;;;;;;;9.77;8.18;;;;;;;;;;6112733;23;20012;-81
2023/05/13 22:19:16;;;;;;;19.50;9.82;;;;;;;;;;6137684;23;20001;-81
2023/05/13 22:21:41;;;;;;;61.97;12.70;;;;;;;;;;6113473;23;20348;-81
2023/05/13 22:24:07;;;;;;;18.25;10.27;;;;;;;;;;6112996;23;20345;-81
2023/05/13 22:26:33;;;;;;;13.18;10.35;;;;;;;;;;6135048;23;20441;-81
2023/05/13 22:28:59;;;;;;;17.48;11.13;;;;;;;;;;6137562;23;20005;-81
2023/05/13 22:31:25;;;;;;;13.57;10.45;;;;;;;;;;6113503;23;20018;-80
2023/05/13 22:33:50;;;;;;;76.38;11.52;;;;;;;;;;6135587;23;20063;-80
2023/05/13 22:36:16;;;;;;;143.05;12.57;;;;;;;;;;6112500;23;20000;-81
2023/05/13 22:38:41;;;;;;;70.78;10.60;;;;;;;;;;6112575;23;19981;-81
2023/05/13 22:41:06;;;;;;;26.90;8.32;;;;;;;;;;6137246;23;20379;-80
2023/05/13 22:43:32;;;;;;;320.17;12.05;;;;;;;;;;6112119;23;20001;-80
2023/05/13 22:45:57;;;;;;;431.83;15.98;;;;;;;;;;6137047;23;20013;-79
2023/05/13 22:48:22;;;;;;;36.17;5.95;;;;;;;;;;6162198;23;20005;-80
2023/05/13 22:50:48;;;;;;;56.28;8.63;;;;;;;;;;6137476;23;20001;-80
2023/05/13 22:53:13;;;;;;;93.38;12.75;;;;;;;;;;6137571;23;20111;-80
2023/05/13 22:55:38;;;;;;;118.82;13.63;;;;;;;;;;6136620;23;20013;-81
2023/05/13 22:58:04;;;;;;;44.92;13.05;;;;;;;;;;6137839;23;20009;-79
2023/05/13 23:00:29;;;;;;;23.08;14.02;;;;;;;;;;6112514;23;20009;-80
2023/05/13 23:02:56;;;;;;;23.38;14.25;;;;;;;;;;6131777;23;111747;-80
2023/05/13 23:05:21;;;;;;;27.23;14.80;;;;;;;;;;6159337;23;20037;-80
2023/05/13 23:07:46;;;;;;;26.83;15.65;;;;;;;;;;6127083;22;20016;-80
2023/05/13 23:10:12;;;;;;;28.58;15.63;;;;;;;;;;6210455;23;20015;-80
2023/05/13 23:12:37;;;;;;;27.10;15.70;;;;;;;;;;6158203;23;73592;-80
2023/05/13 23:15:04;;;;;;;22.80;14.45;;;;;;;;;;6187753;23;20016;-80
2023/05/13 23:17:29;;;;;;;25.48;14.93;;;;;;;;;;6155016;23;20013;-80
2023/05/13 23:19:54;;;;;;;22.70;13.88;;;;;;;;;;6155982;23;20496;-80
2023/05/13 23:22:20;;;;;;;25.42;14.32;;;;;;;;;;6187709;23;20009;-80
2023/05/13 23:24:45;;;;;;;21.52;13.95;;;;;;;;;;6161287;23;20022;-80
2023/05/13 23:27:10;;;;;;;21.60;12.88;;;;;;;;;;6188808;23;20005;-78
2023/05/13 23:29:36;;;;;;;31.52;16.70;;;;;;;;;;6190351;23;20023;-77
2023/05/13 23:32:01;;;;;;;27.73;16.17;;;;;;;;;;6130253;23;122813;-77
2023/05/13 23:34:26;;;;;;;25.40;14.82;;;;;;;;;;6202851;23;20073;-78
2023/05/13 23:36:52;;;;;;;21.33;14.32;;;;;;;;;;6163422;23;20083;-78
2023/05/13 23:39:17;;;;;;;21.65;14.02;;;;;;;;;;6144246;23;20012;-78
2023/05/13 23:41:42;;;;;;;22.55;15.07;;;;;;;;;;6172643;23;20087;-78
2023/05/13 23:44:08;;;;;;;24.05;15.30;;;;;;;;;;6167111;23;20069;-78
2023/05/13 23:46:33;;;;;;;30.58;17.15;;;;;;;;;;6166778;23;20092;-78
2023/05/13 23:48:58;;;;;;;26.35;17.42;;;;;;;;;;6193258;23;20017;-79
2023/05/13 23:51:24;;;;;;;30.92;16.85;;;;;;;;;;6193474;23;20013;-79
2023/05/13 23:53:49;;;;;;;32.85;18.73;;;;;;;;;;6191033;23;20005;-80
2023/05/13 23:56:14;;;;;;;26.48;16.17;;;;;;;;;;6181084;23;20021;-76
2023/05/13 23:58:42;;;;;;;34.17;19.30;;;;;;;;;;6155102;23;20020;-77
